Stations météo

réclame
Mon MeteoGroup
Hupsel aws, Pays-Bas (6283): Température de l'air & dewpoint: 11.01.2018 08:00:00 - 17.01.2018 08:00:00 (CET)Hupsel aws, Pays-Bas (6283): Température de l'air 5cm: 11.01.2018 08:00:00 - 17.01.2018 08:00:00 (CET)Hupsel aws, Pays-Bas (6283): Vitesse du vent & gusts: 11.01.2018 08:00:00 - 17.01.2018 08:00:00 (CET)Hupsel aws, Pays-Bas (6283): Direction du vent: 11.01.2018 08:00:00 - 17.01.2018 08:00:00 (CET)Hupsel aws, Pays-Bas (6283): Quantités de précipitations: 11.01.2018 08:00:00 - 17.01.2018 08:00:00 (CET)
Date & Time tt [°C] td [°C] tt 5cm [°C] ff [km/h] ff [knt] fx [km/h] fx [knt] dd rr [mm]
17.01.2018 08:00:00 - - - - - - - - -
17.01.2018 07:00:00 1,7 -0,6 0,9 18 10 29 16 SW 0,0
17.01.2018 06:00:00 1,8 -0,2 0,9 18 10 29 16 WSW 0,0
17.01.2018 05:00:00 1,5 0,2 0,7 14 8 25 14 SW 0,0
17.01.2018 04:00:00 1,6 0,2 0,9 14 8 29 16 SW 0,0
17.01.2018 03:00:00 0,8 0,5 0,3 7 4 14 8 SW 0,8
17.01.2018 02:00:00 1,5 0,7 1,0 7 4 22 12 W 1,1
17.01.2018 01:00:00 2,2 1,2 1,9 7 4 22 12 WSW 0,4
17.01.2018 00:00:00 2,8 0,9 2,2 14 8 36 19 SW 0,0
16.01.2018 23:00:00 2,6 0,1 1,6 14 8 29 16 SSW 0,0
16.01.2018 22:00:00 1,6 -0,1 0,7 11 6 22 12 S 0,0
16.01.2018 21:00:00 1,9 0,2 0,8 7 4 22 12 SSW 0,0
16.01.2018 20:00:00 2,8 0,6 1,7 22 12 32 18 SW 0,0
16.01.2018 19:00:00 3,3 0,4 2,1 11 6 29 16 SSW 0,0
16.01.2018 18:00:00 3,4 0,3 1,0 11 6 32 18 SSW 0,1
16.01.2018 17:00:00 3,8 0,8 2,6 14 8 29 16 WSW 0,0
16.01.2018 16:00:00 4,7 0,0 3,6 22 12 43 23 W 0,0
16.01.2018 15:00:00 4,7 0,3 3,9 18 10 43 23 WSW 0,0
16.01.2018 14:00:00 4,4 0,2 3,9 32 18 54 29 W 0,0
16.01.2018 13:00:00 5,9 2,1 6,0 18 10 36 19 WSW 0,0
16.01.2018 12:00:00 5,0 2,2 5,1 18 10 36 19 WSW 0,0
16.01.2018 11:00:00 3,7 2,0 3,0 22 12 43 23 WSW 1,4
16.01.2018 10:00:00 3,8 2,1 3,5 32 18 43 23 WSW 0,9
16.01.2018 09:00:00 4,6 2,0 4,0 25 14 50 27 SW 0,0
16.01.2018 08:00:00 5,7 3,4 4,7 25 14 40 21 WSW 0,0
16.01.2018 07:00:00 5,9 3,8 5,2 25 14 47 25 SW 0,0
16.01.2018 06:00:00 5,8 4,0 5,2 22 12 47 25 SW 0,8
16.01.2018 05:00:00 5,6 3,8 5,1 18 10 32 18 SW 0,0
16.01.2018 04:00:00 5,3 3,1 4,9 22 12 40 21 SW 0,0
16.01.2018 03:00:00 5,9 3,5 5,3 22 12 36 19 SW 0,0
16.01.2018 02:00:00 6,3 4,5 5,7 25 14 43 23 WSW 0,2
16.01.2018 01:00:00 6,3 4,2 5,8 25 14 43 23 WSW 0,6
16.01.2018 00:00:00 6,4 5,6 5,7 18 10 40 21 SW 0,6
15.01.2018 23:00:00 6,4 5,7 6,1 14 8 40 21 SSW 0,3
15.01.2018 22:00:00 6,2 4,9 5,7 22 12 43 23 SSW 0,1
15.01.2018 21:00:00 5,8 4,3 5,4 25 14 54 29 S 0,3
15.01.2018 20:00:00 5,6 4,2 4,9 32 18 50 27 S 1,8
15.01.2018 19:00:00 5,4 3,9 4,9 29 16 54 29 S 2,5
15.01.2018 18:00:00 5,7 4,0 5,1 25 14 47 25 S 0,7
15.01.2018 17:00:00 5,7 4,2 5,3 29 16 50 27 S 0,5
15.01.2018 16:00:00 5,8 4,2 5,4 32 18 50 27 S 0,2
15.01.2018 15:00:00 6,1 3,9 5,6 32 18 47 25 S 1,1
15.01.2018 14:00:00 6,3 3,6 5,9 22 12 43 23 S 0,1
15.01.2018 13:00:00 6,1 2,6 5,9 25 14 43 23 S 0,0
15.01.2018 12:00:00 5,3 2,2 5,0 29 16 43 23 S 0,0
15.01.2018 11:00:00 4,4 2,1 4,1 22 12 36 19 S 0,0
15.01.2018 10:00:00 4,2 1,6 3,9 22 12 36 19 S 0,0
15.01.2018 09:00:00 3,9 1,4 3,4 22 12 36 19 S 0,0
15.01.2018 08:00:00 3,3 1,2 2,7 14 8 25 14 S 0,0
15.01.2018 07:00:00 2,0 -0,3 0,9 14 8 22 12 SSE 0,0
15.01.2018 06:00:00 1,4 -1,0 0,3 14 8 22 12 S 0,0
15.01.2018 05:00:00 1,3 -1,3 0,1 14 8 25 14 S 0,0
15.01.2018 04:00:00 0,7 -1,7 -0,7 11 6 22 12 SSE 0,0
15.01.2018 03:00:00 0,8 -1,7 -0,6 14 8 18 10 S 0,0
15.01.2018 02:00:00 0,8 -1,8 -0,5 14 8 22 12 SSE 0,0
15.01.2018 01:00:00 0,8 -1,8 -0,4 14 8 22 12 SSE 0,0
15.01.2018 00:00:00 0,7 -1,9 -0,7 11 6 22 12 SSE 0,0
14.01.2018 23:00:00 0,8 -1,9 -0,8 14 8 22 12 SSE 0,0
14.01.2018 22:00:00 0,5 -2,4 -1,0 14 8 18 10 SE 0,0
14.01.2018 21:00:00 -0,4 -3,2 -3,0 7 4 14 8 ESE 0,0
14.01.2018 20:00:00 0,1 -2,9 -1,6 11 6 18 10 ESE 0,0
14.01.2018 19:00:00 -0,3 -2,8 -2,2 11 6 14 8 ESE 0,0
14.01.2018 18:00:00 0,2 -2,4 -2,0 11 6 14 8 ESE 0,0
14.01.2018 17:00:00 0,7 -1,8 -1,3 7 4 18 10 E 0,0
14.01.2018 16:00:00 3,0 -0,9 2,0 11 6 25 14 ESE 0,0
14.01.2018 15:00:00 3,9 -0,8 3,9 18 10 25 14 ESE 0,0
14.01.2018 14:00:00 4,0 -0,9 4,5 18 10 29 16 ESE 0,0
14.01.2018 13:00:00 3,6 -0,8 4,1 14 8 25 14 ESE 0,0
14.01.2018 12:00:00 3,1 -0,7 3,2 18 10 25 14 ESE 0,0
14.01.2018 11:00:00 2,6 -0,7 2,5 14 8 22 12 E 0,0
14.01.2018 10:00:00 2,1 -1,1 2,0 18 10 25 14 E 0,0
14.01.2018 09:00:00 2,0 -1,1 1,8 18 10 22 12 E 0,0
14.01.2018 08:00:00 2,1 -0,9 1,9 14 8 25 14 E 0,0
14.01.2018 07:00:00 2,2 -0,7 2,0 14 8 29 16 E 0,0
14.01.2018 06:00:00 2,3 -0,6 2,1 18 10 25 14 E 0,0
14.01.2018 05:00:00 2,5 -0,3 2,3 14 8 25 14 E 0,0
14.01.2018 04:00:00 2,8 -0,1 2,5 14 8 22 12 ENE 0,0
14.01.2018 03:00:00 3,2 -0,2 2,8 14 8 22 12 E 0,0
14.01.2018 02:00:00 3,5 -0,2 3,1 11 6 25 14 E 0,0
14.01.2018 01:00:00 3,7 -0,3 3,2 14 8 22 12 E 0,0
14.01.2018 00:00:00 3,9 0,2 3,4 14 8 22 12 E 0,0
13.01.2018 23:00:00 3,9 0,8 3,4 11 6 14 8 E 0,0
13.01.2018 22:00:00 4,0 1,0 3,3 11 6 22 12 E 0,0
13.01.2018 21:00:00 3,2 0,4 1,8 11 6 14 8 E 0,0
13.01.2018 20:00:00 3,3 0,6 2,0 14 8 18 10 E 0,0
13.01.2018 19:00:00 4,9 1,9 4,3 14 8 22 12 E 0,0
13.01.2018 18:00:00 5,3 2,1 4,7 11 6 18 10 E 0,0
13.01.2018 17:00:00 5,6 1,9 5,0 11 6 22 12 E 0,0
13.01.2018 16:00:00 5,8 2,7 5,4 11 6 18 10 E 0,0
13.01.2018 15:00:00 6,0 3,5 5,8 7 4 22 12 ESE 0,0
13.01.2018 14:00:00 6,1 3,9 6,3 11 6 18 10 ESE 0,0
13.01.2018 13:00:00 5,8 4,1 5,9 11 6 18 10 ESE 0,0
13.01.2018 12:00:00 5,4 4,1 5,4 7 4 11 6 ESE 0,0
13.01.2018 11:00:00 4,8 4,1 4,8 7 4 11 6 E 0,0
13.01.2018 10:00:00 4,1 3,9 4,1 11 6 11 6 E 0,0
13.01.2018 09:00:00 3,8 3,7 3,8 7 4 14 8 E 0,0
13.01.2018 08:00:00 3,9 3,7 3,9 11 6 14 8 E 0,0
13.01.2018 07:00:00 3,9 3,8 4,0 11 6 11 6 E 0,0
13.01.2018 06:00:00 3,8 3,8 3,9 4 2 14 8 E 0,0
13.01.2018 05:00:00 3,8 3,5 3,8 11 6 11 6 E 0,0
13.01.2018 04:00:00 4,0 3,9 4,0 7 4 11 6 NE 0,0
13.01.2018 03:00:00 3,9 3,8 4,0 7 4 11 6 ENE 0,0
13.01.2018 02:00:00 3,8 3,8 3,9 4 2 11 6 E 0,0
13.01.2018 01:00:00 3,7 3,5 3,8 7 4 11 6 E 0,0
13.01.2018 00:00:00 3,6 3,3 3,6 4 2 7 4 NE 0,0
12.01.2018 23:00:00 3,2 2,9 2,9 4 2 7 4 E 0,0
12.01.2018 22:00:00 3,3 2,7 3,1 4 2 7 4 ENE 0,0
12.01.2018 21:00:00 3,6 2,8 3,4 4 2 7 4 NE 0,0
12.01.2018 20:00:00 3,6 2,7 3,3 4 2 7 4 NE 0,0
12.01.2018 19:00:00 3,7 2,7 3,5 4 2 11 6 ENE 0,0
12.01.2018 18:00:00 3,7 3,0 3,6 4 2 11 6 ENE 0,0
12.01.2018 17:00:00 3,9 2,9 3,8 4 2 11 6 ENE 0,0
12.01.2018 16:00:00 4,0 3,2 4,1 7 4 11 6 E 0,0
12.01.2018 15:00:00 4,2 3,0 4,4 4 2 7 4 E 0,0
12.01.2018 14:00:00 4,0 3,2 4,3 4 2 7 4 E 0,0
12.01.2018 13:00:00 4,1 3,0 4,5 4 2 7 4 E 0,0
12.01.2018 12:00:00 3,8 3,3 4,0 4 2 7 4 NNE 0,0
12.01.2018 11:00:00 3,5 3,1 3,6 4 2 7 4 NNW 0,0
12.01.2018 10:00:00 3,3 3,2 3,4 4 2 7 4 NW 0,0
12.01.2018 09:00:00 3,1 3,0 3,2 7 4 11 6 NW 0,0
12.01.2018 08:00:00 3,1 3,1 3,2 4 2 7 4 N 0,0
12.01.2018 07:00:00 3,0 2,9 3,1 7 4 11 6 N 0,0
12.01.2018 06:00:00 2,9 2,9 3,0 4 2 11 6 N 0,0
12.01.2018 05:00:00 2,8 2,7 2,8 4 2 11 6 NNW 0,0
12.01.2018 04:00:00 2,8 2,7 2,8 7 4 11 6 N 0,0
12.01.2018 03:00:00 2,4 2,3 2,3 7 4 14 8 NNW 0,0
12.01.2018 02:00:00 2,0 1,8 2,0 4 2 7 4 NW 0,0
12.01.2018 01:00:00 1,8 1,8 1,8 7 4 11 6 NW 0,0
12.01.2018 00:00:00 1,8 1,7 1,5 0 0 7 4 N 0,0
11.01.2018 23:00:00 2,4 2,3 1,8 7 4 11 6 N 0,0
11.01.2018 22:00:00 2,1 2,0 -1,5 4 2 7 4 N 0,0
11.01.2018 21:00:00 2,3 2,3 -1,0 7 4 11 6 NW 0,0
11.01.2018 20:00:00 2,8 2,4 -0,3 7 4 11 6 N 0,0
11.01.2018 19:00:00 4,3 3,6 2,4 7 4 11 6 N 0,0
11.01.2018 18:00:00 4,3 3,5 2,2 7 4 14 8 NNW 0,0
11.01.2018 17:00:00 5,4 3,9 3,2 7 4 11 6 N 0,0
11.01.2018 16:00:00 6,7 4,6 5,9 7 4 11 6 N 0,0
11.01.2018 15:00:00 8,4 5,7 8,0 11 6 11 6 N 0,0
11.01.2018 14:00:00 9,2 5,8 9,2 4 2 11 6 N 0,0
11.01.2018 13:00:00 8,6 5,6 8,9 7 4 14 8 N 0,0
11.01.2018 12:00:00 7,3 5,3 7,4 7 4 11 6 N 0,0
11.01.2018 11:00:00 6,0 4,9 6,1 4 2 7 4 NNW 0,0
11.01.2018 10:00:00 4,2 4,0 3,8 0 0 7 4 N 0,0
11.01.2018 09:00:00 3,7 3,5 3,2 4 2 4 2 S 0,0
11.01.2018 08:00:00 3,8 3,2 2,9 4 2 7 4 SE 0,0

tt = Température de l'air
td = dewpoint
tt 5cm = Température de l'air 5cm
ff = Vitesse du vent
fx = gusts
dd = Direction du vent
rr = Quantités de précipitations

stations d'obs. à proximité